SKLT/LET METAR and TAF weather

Enter ICAO airport designator
Station Type Date Time Source
SKLT METAR 2024/02/26 16:00 UTC NOAA

SKLT 261600Z 15004KT 9999 SCT017 30/24 Q1013


Station Type Date Time Source
SKLT Decoded METAR 2024/02/26 16:00 UTC NOAA

Leticia / Vasquez Cobo, Colombia (SKLT) 04-10S 069-57W 84M
Feb 26, 2024 - 11:00 AM EST / 2024.02.26 1600 UTC
Wind: from the SSE (150 degrees) at 5 MPH (4 KT):0
Visibility: greater than 7 mile(s):0
Sky conditions: partly cloudy
Temperature: 86 F (30 C)
Heat index: 95.0 F (35.0 C):1
Dew Point: 75 F (24 C)
Relative Humidity: 70%
Pressure (altimeter): 29.91 in. Hg (1013 hPa)
ob: SKLT 261600Z 15004KT 9999 SCT017 30/24 Q1013
cycle: 16

Station Type Date Time Source
SKLT TAF 2024/02/26 18:36 UTC NOAA